createdAt,value
2019-05-09T00:00:54.191Z,6.65
2019-05-09T00:03:24.116Z,10.08
2019-05-09T00:05:54.226Z,8.53
2019-05-09T00:08:23.232Z,9.80
2019-05-09T00:10:53.445Z,9.73
2019-05-09T00:13:23.719Z,7.62
2019-05-09T00:15:54.180Z,9.43
2019-05-09T00:18:23.316Z,6.70
2019-05-09T00:20:54.052Z,8.05
2019-05-09T00:23:23.964Z,8.18
2019-05-09T00:25:53.839Z,7.80
2019-05-09T00:28:24.837Z,7.17
2019-05-09T00:30:55.075Z,7.95
2019-05-09T00:33:25.625Z,8.13
2019-05-09T00:35:54.097Z,7.28
2019-05-09T00:38:24.326Z,9.35
2019-05-09T00:40:58.557Z,7.20
2019-05-09T00:43:24.545Z,7.95
2019-05-09T00:46:00.727Z,8.40
2019-05-09T00:48:48.697Z,8.55
2019-05-09T00:51:17.172Z,10.58
2019-05-09T00:53:45.764Z,9.10
2019-05-09T00:56:14.279Z,6.58
2019-05-09T00:58:44.094Z,6.40
2019-05-09T01:01:14.273Z,9.05
2019-05-09T01:03:43.262Z,9.90
2019-05-09T01:06:13.415Z,5.95
2019-05-09T01:08:44.092Z,10.85
2019-05-09T01:11:15.489Z,7.30
2019-05-09T01:13:43.484Z,11.15
2019-05-09T01:16:13.334Z,10.65
2019-05-09T01:18:43.710Z,8.95
2019-05-09T01:21:13.370Z,8.90
2019-05-09T01:23:43.598Z,8.33
2019-05-09T01:26:13.199Z,6.95
2019-05-09T01:28:44.089Z,9.30
2019-05-09T01:31:13.229Z,7.75
2019-05-09T01:33:43.993Z,11.70
2019-05-09T01:36:14.432Z,8.68
2019-05-09T01:38:43.328Z,6.75
2019-05-09T01:41:24.612Z,11.50
2019-05-09T01:43:44.290Z,7.75
2019-05-09T01:46:14.433Z,11.63
2019-05-09T01:48:43.211Z,8.03
2019-05-09T01:51:13.705Z,9.20
2019-05-09T01:53:43.799Z,8.35
2019-05-09T01:56:14.017Z,8.40
2019-05-09T01:58:43.149Z,8.83
2019-05-09T02:01:13.401Z,8.48
2019-05-09T02:03:43.716Z,7.85
2019-05-09T02:06:13.609Z,8.25
2019-05-09T02:08:43.772Z,7.67
2019-05-09T02:11:13.368Z,6.90
2019-05-09T02:13:45.730Z,8.80
2019-05-09T02:16:18.816Z,8.50
2019-05-09T02:18:53.436Z,10.23
2019-05-09T02:21:23.824Z,8.58
2019-05-09T02:23:53.696Z,11.38
2019-05-09T02:26:24.043Z,8.95
2019-05-09T02:28:53.803Z,8.75
2019-05-09T02:31:24.560Z,8.00
2019-05-09T02:33:54.136Z,7.40
2019-05-09T02:36:23.241Z,8.63
2019-05-09T02:38:51.775Z,10.72
2019-05-09T02:41:21.866Z,9.23
2019-05-09T02:43:50.332Z,11.10
2019-05-09T02:46:20.468Z,7.97
2019-05-09T02:48:49.736Z,6.75
2019-05-09T02:51:18.779Z,7.92
2019-05-09T02:53:48.555Z,7.28
2019-05-09T02:56:18.772Z,9.08
2019-05-09T02:58:49.278Z,9.13
2019-05-09T03:01:29.374Z,7.97
2019-05-09T03:03:58.914Z,11.33
2019-05-09T03:06:28.521Z,8.10
2019-05-09T03:08:59.417Z,9.43
2019-05-09T03:11:28.956Z,9.55
2019-05-09T03:13:58.615Z,8.33
2019-05-09T03:16:29.337Z,7.83
2019-05-09T03:18:58.594Z,10.32
2019-05-09T03:21:30.084Z,7.40
2019-05-09T03:23:59.432Z,7.40
2019-05-09T03:26:29.834Z,9.03
2019-05-09T03:29:03.163Z,10.53
2019-05-09T03:31:33.425Z,8.03
2019-05-09T03:34:01.985Z,10.08
2019-05-09T03:36:30.530Z,11.83
2019-05-09T03:38:59.287Z,8.08
2019-05-09T03:41:28.364Z,11.65
2019-05-09T03:43:58.613Z,12.35
2019-05-09T03:46:47.455Z,8.90
2019-05-09T03:49:18.015Z,10.53
2019-05-09T03:51:48.277Z,10.80
2019-05-09T03:54:18.341Z,11.12
2019-05-09T03:56:48.849Z,15.55
2019-05-09T03:59:17.671Z,15.28
2019-05-09T04:01:49.377Z,13.13
2019-05-09T04:04:17.348Z,13.98
2019-05-09T04:06:48.022Z,12.03
2019-05-09T04:09:17.991Z,14.45
2019-05-09T04:11:48.536Z,16.27
2019-05-09T04:14:21.343Z,18.95
2019-05-09T04:16:48.644Z,13.60
2019-05-09T04:19:17.557Z,17.98
2019-05-09T04:21:48.447Z,16.85
2019-05-09T04:24:17.668Z,21.02
2019-05-09T04:26:50.891Z,23.27
2019-05-09T04:29:21.251Z,21.05
2019-05-09T04:31:49.580Z,20.40
2019-05-09T04:34:18.369Z,20.92
2019-05-09T04:36:48.368Z,18.40
2019-05-09T04:39:23.481Z,27.15
2019-05-09T04:41:48.689Z,20.92
2019-05-09T04:44:22.332Z,20.40
2019-05-09T04:46:54.230Z,21.27
2019-05-09T04:49:21.093Z,20.75
2019-05-09T04:51:49.577Z,19.75
2019-05-09T04:54:18.135Z,20.57
2019-05-09T04:56:48.958Z,17.15
2019-05-09T04:59:18.028Z,17.65
2019-05-09T05:01:54.197Z,16.73
2019-05-09T05:04:24.339Z,22.32
2019-05-09T05:06:52.852Z,18.48
2019-05-09T05:09:21.667Z,23.57
2019-05-09T05:11:50.427Z,18.40
2019-05-09T05:14:21.700Z,19.05
2019-05-09T05:16:55.628Z,19.10
2019-05-09T05:19:28.493Z,17.25
2019-05-09T05:21:58.375Z,17.62
2019-05-09T05:24:31.514Z,15.90
2019-05-09T05:26:59.974Z,18.10
2019-05-09T05:29:28.464Z,14.47
2019-05-09T05:31:58.598Z,15.78
2019-05-09T05:34:28.726Z,13.22
2019-05-09T05:36:58.237Z,13.22
2019-05-09T05:39:28.368Z,13.18
2019-05-09T05:41:58.020Z,13.08
2019-05-09T05:44:28.393Z,10.82
2019-05-09T05:46:58.630Z,11.08
2019-05-09T05:49:28.028Z,13.38
2019-05-09T05:51:57.665Z,10.70
2019-05-09T05:54:27.672Z,14.58
2019-05-09T05:56:57.802Z,10.90
2019-05-09T05:59:28.636Z,12.00
2019-05-09T06:01:58.305Z,13.35
2019-05-09T06:04:27.521Z,9.95
2019-05-09T06:06:58.679Z,10.68
2019-05-09T06:09:28.009Z,11.43
2019-05-09T06:11:57.741Z,11.38
2019-05-09T06:14:28.572Z,10.65
2019-05-09T06:16:58.759Z,9.00
2019-05-09T06:19:28.609Z,13.93
2019-05-09T06:21:57.521Z,15.00
2019-05-09T06:24:28.162Z,12.82
2019-05-09T06:26:58.410Z,12.68
2019-05-09T06:29:28.549Z,12.20
2019-05-09T06:31:58.445Z,12.55
2019-05-09T06:34:27.743Z,13.03
2019-05-09T06:36:58.592Z,11.68
2019-05-09T06:39:28.474Z,11.53
2019-05-09T06:41:57.652Z,12.55
2019-05-09T06:44:33.467Z,10.60
2019-05-09T06:47:03.726Z,12.15
2019-05-09T06:49:33.945Z,12.65
2019-05-09T06:52:02.814Z,10.60
2019-05-09T06:54:31.369Z,13.05
2019-05-09T06:56:59.921Z,10.68
2019-05-09T06:59:28.513Z,11.93
2019-05-09T07:01:58.717Z,12.68
2019-05-09T07:04:42.800Z,14.58
2019-05-09T07:07:17.655Z,11.95
2019-05-09T07:09:53.430Z,14.33
2019-05-09T07:12:21.891Z,13.00
2019-05-09T07:14:50.358Z,12.95
2019-05-09T07:17:19.067Z,13.48
2019-05-09T07:19:48.845Z,13.30
2019-05-09T07:22:27.849Z,12.43
2019-05-09T07:25:06.752Z,14.28
2019-05-09T07:27:39.094Z,13.50
2019-05-09T07:30:11.385Z,14.40
2019-05-09T07:32:41.523Z,15.88
2019-05-09T07:35:11.381Z,11.15
2019-05-09T07:37:39.858Z,13.25
2019-05-09T07:40:10.041Z,10.50
2019-05-09T07:42:39.182Z,12.90
2019-05-09T07:45:08.839Z,10.20
2019-05-09T07:47:38.706Z,11.93
2019-05-09T07:50:08.632Z,13.60
2019-05-09T07:52:38.787Z,12.45
2019-05-09T07:55:08.921Z,10.58
2019-05-09T07:57:45.723Z,12.47
2019-05-09T08:00:09.957Z,13.13
2019-05-09T08:02:38.799Z,10.50
2019-05-09T08:05:08.694Z,9.30
2019-05-09T08:07:38.209Z,9.15
2019-05-09T08:10:09.070Z,8.70
2019-05-09T08:12:38.888Z,10.15
2019-05-09T08:15:16.221Z,10.78
2019-05-09T08:17:40.270Z,9.88
2019-05-09T08:20:08.317Z,9.95
2019-05-09T08:22:41.083Z,9.40
2019-05-09T08:25:08.225Z,7.08
2019-05-09T08:27:37.921Z,9.15
2019-05-09T08:30:08.096Z,7.78
2019-05-09T08:32:37.785Z,13.00
2019-05-09T08:35:08.226Z,10.88
2019-05-09T08:37:39.037Z,8.63
2019-05-09T08:40:08.202Z,12.18
2019-05-09T08:42:37.778Z,9.85
2019-05-09T08:45:17.311Z,6.33
2019-05-09T08:47:38.037Z,7.65
2019-05-09T08:50:22.105Z,8.58
2019-05-09T08:52:50.991Z,9.20
2019-05-09T08:55:19.466Z,9.13
2019-05-09T08:57:48.271Z,6.37
2019-05-09T09:00:18.951Z,6.47
2019-05-09T09:02:48.188Z,6.25
2019-05-09T09:05:18.627Z,4.70
2019-05-09T09:07:48.612Z,6.70
2019-05-09T09:10:18.651Z,5.65
2019-05-09T09:12:47.842Z,5.45
2019-05-09T09:15:18.051Z,6.45
2019-05-09T09:17:49.040Z,5.05
2019-05-09T09:20:18.224Z,6.92
2019-05-09T09:22:48.021Z,5.72
2019-05-09T09:25:18.455Z,7.90
2019-05-09T09:27:50.737Z,5.72
2019-05-09T09:30:24.794Z,5.67
2019-05-09T09:32:48.564Z,6.87
2019-05-09T09:35:18.691Z,6.83
2019-05-09T09:37:51.416Z,7.78
2019-05-09T09:40:17.792Z,6.15
2019-05-09T09:42:49.038Z,6.03
2019-05-09T09:45:18.365Z,5.67
2019-05-09T09:47:48.269Z,4.97
2019-05-09T09:50:17.840Z,6.08
2019-05-09T09:52:48.911Z,7.75
2019-05-09T09:55:18.722Z,5.10
2019-05-09T09:57:48.479Z,5.97
2019-05-09T10:00:55.243Z,4.87
2019-05-09T10:03:24.534Z,4.65
2019-05-09T10:05:53.057Z,5.37
2019-05-09T10:08:21.630Z,5.62
2019-05-09T10:10:50.217Z,6.22
2019-05-09T10:13:18.815Z,7.40
2019-05-09T10:15:58.766Z,7.37
2019-05-09T10:18:29.308Z,6.80
2019-05-09T10:21:15.902Z,6.75
2019-05-09T10:23:44.509Z,7.65
2019-05-09T10:26:12.975Z,7.55
2019-05-09T10:28:45.275Z,4.95
2019-05-09T10:31:11.695Z,6.75
2019-05-09T10:33:40.213Z,7.22
2019-05-09T10:36:08.932Z,8.53
2019-05-09T10:38:38.633Z,6.87
2019-05-09T10:41:11.014Z,6.70
2019-05-09T10:43:39.610Z,8.48
2019-05-09T10:46:33.611Z,8.25
2019-05-09T10:49:07.992Z,7.78
2019-05-09T10:51:35.504Z,9.43
2019-05-09T10:54:04.231Z,10.08
2019-05-09T10:56:32.724Z,8.53
2019-05-09T10:59:01.256Z,6.87
2019-05-09T11:01:29.834Z,8.13
2019-05-09T11:03:59.181Z,9.55
2019-05-09T11:06:28.666Z,8.35
2019-05-09T11:08:58.499Z,8.88
2019-05-09T11:11:28.515Z,6.75
2019-05-09T11:13:58.708Z,9.85
2019-05-09T11:16:41.694Z,10.93
2019-05-09T11:18:58.645Z,9.18
2019-05-09T11:21:28.565Z,9.05
2019-05-09T11:23:58.620Z,8.80
2019-05-09T11:26:28.432Z,7.08
2019-05-09T11:28:58.832Z,7.65
2019-05-09T11:31:29.431Z,11.93
2019-05-09T11:33:58.161Z,10.63
2019-05-09T11:36:27.073Z,7.40
2019-05-09T11:38:59.886Z,9.58
2019-05-09T11:41:29.027Z,8.20
2019-05-09T11:43:56.015Z,8.50
2019-05-09T11:46:24.589Z,6.50
2019-05-09T11:48:53.141Z,8.98
2019-05-09T11:51:22.906Z,5.58
2019-05-09T11:53:51.837Z,5.10
2019-05-09T11:56:20.563Z,8.35
2019-05-09T11:58:49.455Z,6.65
2019-05-09T12:01:19.067Z,7.20
2019-05-09T12:03:51.910Z,8.50
2019-05-09T12:06:20.075Z,6.70
2019-05-09T12:08:48.579Z,8.63
2019-05-09T12:11:18.370Z,6.28
2019-05-09T12:13:48.560Z,7.53
2019-05-09T12:16:18.459Z,8.40
2019-05-09T12:18:48.819Z,6.10
2019-05-09T12:21:19.007Z,6.15
2019-05-09T12:23:49.035Z,5.87
2019-05-09T12:26:18.396Z,7.33
2019-05-09T12:28:48.456Z,8.13
2019-05-09T12:31:18.224Z,7.65
2019-05-09T12:33:48.416Z,6.97
2019-05-09T12:36:19.168Z,6.87
2019-05-09T12:38:49.974Z,7.35
2019-05-09T12:41:19.066Z,6.35
2019-05-09T12:43:48.047Z,7.83
2019-05-09T12:46:16.527Z,6.72
2019-05-09T12:48:48.110Z,7.28
2019-05-09T12:51:18.455Z,8.15
2019-05-09T12:53:48.525Z,7.10
2019-05-09T12:56:18.753Z,7.47
2019-05-09T12:58:47.880Z,7.90
2019-05-09T13:01:18.817Z,7.70
2019-05-09T13:03:48.465Z,9.63
2019-05-09T13:06:20.172Z,8.50
2019-05-09T13:08:48.057Z,5.95
2019-05-09T13:11:18.781Z,8.05
2019-05-09T13:13:47.972Z,9.13
2019-05-09T13:16:39.054Z,10.45
2019-05-09T13:19:05.214Z,6.15
2019-05-09T13:21:33.878Z,8.93
2019-05-09T13:24:02.665Z,8.38
2019-05-09T13:26:31.324Z,11.10
2019-05-09T13:29:00.280Z,11.50
2019-05-09T13:31:29.596Z,8.23
2019-05-09T13:34:00.289Z,6.75
2019-05-09T13:36:28.860Z,6.37
2019-05-09T13:39:04.086Z,9.45
2019-05-09T13:41:27.689Z,7.28
2019-05-09T13:43:59.150Z,6.53
2019-05-09T13:46:28.292Z,6.80
2019-05-09T13:49:08.330Z,6.65
2019-05-09T13:51:26.873Z,8.15
2019-05-09T13:53:55.463Z,7.42
2019-05-09T13:56:24.442Z,6.17
2019-05-09T13:58:52.920Z,7.33
2019-05-09T14:01:21.442Z,8.60
2019-05-09T14:03:50.285Z,6.10
2019-05-09T14:06:18.882Z,6.90
2019-05-09T14:08:48.974Z,8.78
2019-05-09T14:11:19.310Z,7.45
2019-05-09T14:13:48.898Z,7.95
2019-05-09T14:16:22.449Z,7.10
2019-05-09T14:18:55.586Z,9.68
2019-05-09T14:21:24.914Z,8.00
2019-05-09T14:24:06.484Z,8.73
2019-05-09T14:26:27.594Z,10.05
2019-05-09T14:31:53.672Z,9.08
2019-05-09T14:34:22.239Z,10.93
2019-05-09T14:36:50.885Z,14.03
2019-05-09T14:39:19.485Z,13.98
2019-05-09T14:41:48.093Z,9.43
2019-05-09T14:44:18.253Z,11.20
2019-05-09T14:46:48.244Z,11.30
2019-05-09T14:49:17.687Z,12.93
2019-05-09T14:51:46.503Z,8.80
2019-05-09T14:54:15.126Z,7.40
2019-05-09T14:56:43.718Z,7.72
2019-05-09T14:59:12.259Z,7.90
2019-05-09T15:01:43.864Z,7.45
2019-05-09T15:04:11.019Z,7.40
2019-05-09T15:06:39.525Z,7.85
2019-05-09T15:09:09.037Z,9.25
2019-05-09T15:11:39.535Z,7.25
2019-05-09T15:14:09.331Z,8.23
2019-05-09T15:16:39.552Z,5.83
2019-05-09T15:19:08.568Z,8.03
2019-05-09T15:21:38.253Z,6.92
2019-05-09T15:24:09.157Z,9.45
2019-05-09T15:26:37.608Z,7.92
2019-05-09T15:29:07.955Z,9.85
2019-05-09T15:31:39.214Z,9.63
2019-05-09T15:34:09.915Z,7.00
2019-05-09T15:36:38.068Z,8.60
2019-05-09T15:39:08.218Z,8.55
2019-05-09T15:41:38.544Z,9.83
2019-05-09T15:44:13.127Z,9.00
2019-05-09T15:46:46.315Z,9.05
2019-05-09T15:49:14.807Z,10.18
2019-05-09T15:51:44.946Z,9.25
2019-05-09T15:54:13.607Z,8.58
2019-05-09T15:56:44.071Z,7.60
2019-05-09T15:59:13.906Z,8.28
2019-05-09T16:01:42.420Z,9.98
2019-05-09T16:04:11.735Z,12.15
2019-05-09T16:07:18.934Z,7.17
2019-05-09T16:10:17.735Z,9.98
2019-05-09T16:13:39.308Z,10.30
2019-05-09T16:21:04.938Z,8.55
2019-05-09T16:26:07.284Z,8.70
2019-05-09T16:44:28.691Z,12.60
2019-05-09T16:46:58.910Z,10.00
2019-05-09T16:49:29.227Z,11.75
2019-05-09T16:51:58.261Z,11.33
2019-05-09T16:54:28.658Z,10.63
2019-05-09T16:56:57.462Z,10.35
2019-05-09T16:59:28.087Z,10.35
2019-05-09T17:01:57.880Z,14.00
2019-05-09T17:04:27.816Z,9.68
2019-05-09T17:06:57.670Z,13.32
2019-05-09T17:09:28.568Z,8.40
2019-05-09T17:11:57.728Z,10.88
2019-05-09T17:14:28.314Z,13.08
2019-05-09T17:16:59.659Z,10.32
2019-05-09T17:19:28.264Z,12.82
2019-05-09T17:21:58.918Z,12.50
2019-05-09T17:24:29.721Z,10.88
2019-05-09T17:26:58.101Z,13.10
2019-05-09T17:29:28.021Z,15.23
2019-05-09T17:31:58.447Z,12.58
2019-05-09T17:34:28.703Z,8.65
2019-05-09T17:36:57.387Z,10.78
2019-05-09T17:39:27.811Z,10.45
2019-05-09T17:41:58.255Z,13.70
2019-05-09T17:44:28.085Z,10.80
2019-05-09T17:46:57.983Z,10.88
2019-05-09T17:49:28.066Z,11.38
2019-05-09T17:51:58.416Z,8.68
2019-05-09T17:54:28.751Z,10.70
2019-05-09T17:56:58.940Z,11.75
2019-05-09T17:59:29.266Z,8.38
2019-05-09T18:01:57.931Z,13.08
2019-05-09T18:04:28.797Z,10.78
2019-05-09T18:07:12.426Z,11.03
2019-05-09T18:09:28.598Z,13.75
2019-05-09T18:11:57.929Z,8.50
2019-05-09T18:14:27.661Z,11.45
2019-05-09T18:16:58.139Z,12.70
2019-05-09T18:19:29.374Z,9.15
2019-05-09T18:21:58.192Z,8.38
2019-05-09T18:24:28.690Z,7.72
2019-05-09T18:26:58.897Z,10.13
2019-05-09T18:29:28.056Z,10.40
2019-05-09T18:32:14.429Z,11.08
2019-05-09T18:34:42.873Z,11.70
2019-05-09T18:37:11.486Z,11.38
2019-05-09T18:39:40.053Z,11.15
2019-05-09T18:42:08.861Z,9.68
2019-05-09T18:44:37.700Z,12.78
2019-05-09T18:47:07.917Z,10.45
2019-05-09T18:49:36.554Z,10.30
2019-05-09T18:52:05.121Z,8.88
2019-05-09T18:54:33.632Z,13.08
2019-05-09T18:57:02.169Z,11.03
2019-05-09T18:59:33.006Z,8.98
2019-05-09T19:02:01.592Z,10.32
2019-05-09T19:04:30.046Z,12.35
2019-05-09T19:06:58.525Z,10.40
2019-05-09T19:09:29.269Z,12.43
2019-05-09T19:11:57.191Z,14.33
2019-05-09T19:14:25.824Z,10.20
2019-05-09T19:17:12.267Z,11.12
2019-05-09T19:19:51.633Z,7.97
2019-05-09T19:22:22.465Z,9.73
2019-05-09T19:24:50.301Z,10.25
2019-05-09T19:27:18.770Z,8.98
2019-05-09T19:29:47.355Z,8.43
2019-05-09T19:32:15.816Z,13.53
2019-05-09T19:34:44.274Z,13.05
2019-05-09T19:37:12.749Z,8.65
2019-05-09T19:39:41.689Z,10.88
2019-05-09T19:42:10.158Z,12.03
2019-05-09T19:44:38.613Z,9.38
2019-05-09T19:47:07.445Z,9.93
2019-05-09T19:49:36.061Z,11.55
2019-05-09T19:52:04.541Z,10.50
2019-05-09T19:54:34.950Z,11.90
2019-05-09T19:57:03.432Z,12.80
2019-05-09T19:59:31.999Z,14.70
2019-05-09T20:02:00.796Z,10.48
2019-05-09T20:04:29.317Z,10.68
2019-05-09T20:06:57.790Z,15.68
2019-05-09T20:09:32.758Z,12.33
2019-05-09T20:12:02.587Z,12.07
2019-05-09T20:14:32.716Z,11.90
2019-05-09T20:17:01.262Z,16.12
2019-05-09T20:19:29.910Z,14.85
2019-05-09T20:21:58.368Z,11.08
2019-05-09T20:24:26.920Z,12.85
2019-05-09T20:26:55.539Z,14.90
2019-05-09T20:29:24.089Z,14.83
2019-05-09T20:31:52.619Z,11.18
2019-05-09T20:34:21.132Z,13.83
2019-05-09T20:36:49.679Z,13.70
2019-05-09T20:39:18.389Z,15.15
2019-05-09T20:41:47.137Z,11.93
2019-05-09T20:44:15.868Z,18.07
2019-05-09T20:46:44.586Z,14.05
2019-05-09T20:49:13.323Z,14.58
2019-05-09T20:51:42.097Z,15.08
2019-05-09T20:54:20.594Z,16.30
2019-05-09T20:56:41.151Z,11.45
2019-05-09T20:59:09.793Z,14.50
2019-05-09T21:01:38.858Z,15.50
2019-05-09T21:04:07.976Z,20.27
2019-05-09T21:06:36.675Z,18.20
2019-05-09T21:09:06.708Z,14.15
2019-05-09T21:11:35.938Z,16.77
2019-05-09T21:14:04.762Z,12.15
2019-05-09T21:16:33.428Z,14.20
2019-05-09T21:19:02.087Z,19.52
2019-05-09T21:21:30.850Z,12.85
2019-05-09T21:23:59.534Z,17.20
2019-05-09T21:26:28.215Z,12.18
2019-05-09T21:28:56.882Z,17.37
2019-05-09T21:31:25.524Z,16.50
2019-05-09T21:33:54.226Z,17.67
2019-05-09T21:36:22.724Z,16.57
2019-05-09T21:38:51.276Z,15.50
2019-05-09T21:41:20.014Z,18.00
2019-05-09T21:43:50.333Z,16.37
2019-05-09T21:46:18.877Z,17.40
2019-05-09T21:48:47.506Z,13.95
2019-05-09T21:51:16.017Z,16.25
2019-05-09T21:53:44.501Z,18.32
2019-05-09T21:56:13.064Z,15.72
2019-05-09T21:58:41.886Z,13.05
2019-05-09T22:01:13.457Z,17.67
2019-05-09T22:03:42.076Z,20.20
2019-05-09T22:06:10.704Z,21.17
2019-05-09T22:08:39.194Z,17.32
2019-05-09T22:11:07.684Z,15.63
2019-05-09T22:13:36.207Z,17.77
2019-05-09T22:16:04.930Z,17.45
2019-05-09T22:18:33.502Z,12.80
2019-05-09T22:21:02.054Z,14.98
2019-05-09T22:23:30.520Z,15.75
2019-05-09T22:25:59.026Z,15.48
2019-05-09T22:28:27.588Z,18.75
2019-05-09T22:30:56.196Z,17.90
2019-05-09T22:33:24.666Z,13.68
2019-05-09T22:35:53.120Z,17.57
2019-05-09T22:38:21.878Z,21.80
2019-05-09T22:40:50.351Z,17.85
2019-05-09T22:43:18.838Z,15.45
2019-05-09T22:45:47.412Z,18.85
2019-05-09T22:48:15.873Z,18.73
2019-05-09T22:50:44.370Z,19.25
2019-05-09T22:53:12.899Z,21.17
2019-05-09T22:55:41.370Z,17.17
2019-05-09T22:58:09.957Z,26.68
2019-05-09T23:00:38.548Z,20.37
2019-05-09T23:03:07.113Z,19.75
2019-05-09T23:05:35.576Z,15.70
2019-05-09T23:08:04.046Z,19.62
2019-05-09T23:10:32.870Z,21.40
2019-05-09T23:13:05.584Z,21.17
2019-05-09T23:15:36.511Z,20.62
2019-05-09T23:18:05.115Z,18.65
2019-05-09T23:20:47.625Z,24.87
2019-05-09T23:23:29.718Z,17.98
2019-05-09T23:25:58.587Z,23.40
2019-05-09T23:28:28.770Z,24.07
2019-05-09T23:31:01.619Z,19.17
2019-05-09T23:33:31.865Z,24.92
2019-05-09T23:36:00.409Z,20.72
2019-05-09T23:38:29.231Z,20.43
2019-05-09T23:40:57.714Z,20.52
2019-05-09T23:43:26.199Z,24.45
2019-05-09T23:45:54.714Z,18.73
2019-05-09T23:48:23.250Z,19.98
2019-05-09T23:50:51.776Z,20.40
2019-05-09T23:53:25.021Z,18.35
2019-05-09T23:56:10.992Z,20.27
2019-05-09T23:58:57.528Z,21.68
